Sumner, Michigan
Current Conditions -  °F | °C
As of 2:53 PM on Monday 22 Dec 2014 (Local Time) from KAMN Reporting Station
Overcast Overcast  
Wind Chill: 31°   Ceiling: 10000
Heat Index: 36°   Visibility: 10mi
Dew Point: 28°   Wind: 6mph
Humidity: 73%   Direction: 90°E
Pressure: 29.94"   Gusts: NA
Location:  43.31°N, 84.82°W
Report Text: KAMN 221953Z AUTO 09005KT 10SM OVC100 02/M02 A2994 RMK AO2 T00231021
Loading
Personal Weather Stations






























Interactive Weather Map New forecast layout! Learn more

10-Day Weather Forecast

Advertisements
Track Severe Weather on mobile